Terminal Aerodrome Forecast
Issued by NWS

Home | Current Version | Previous Version | Graphics & Text | Print | Product List | Glossary On
Versions: 1 2 3 4 5 6 7 8 9 10 11 12 13 14 15 16 17 18 19 20 21 22
538
FTUS43 KICT 261728
TAFSLN
TAF
KSLN 261728Z 2618/2718 21007KT P6SM SCT060
      TEMPO 2618/2620 BKN060
     FM262200 VRB05KT P6SM VCTS BKN050CB
     FM270300 07007KT P6SM SCT080
     FM271300 12007KT P6SM SCT070
     FM271700 16012KT P6SM FEW090=

USA.gov is the U.S. government's official web portal to all federal, state and local government web resources and services.